Time;durP1;ratioP1;P1;durP2;ratioP2;P2;SDS_P1;SDS_P2;PMS_P1;PMS_P2;Temp;Humidity;BMP_temperature;BMP_pressure;BME280_temperature;BME280_humidity;BME280_pressure;Samples;Min_cycle;Max_cycle;Signal;HPM_P1;HPM_P2
2023/01/28 00:00:49;;;;;;;;;;;;;;;11.94;68.91;102677.81;1261262;23;641;-68
2023/01/28 00:01:40;;;;;;;;;;;;;;;11.93;68.38;102684.09;1260371;23;649;-68
2023/01/28 00:02:30;;;;;;;;;;;;;;;11.94;69.36;102683.16;1261287;23;654;-68
2023/01/28 00:03:21;;;;;;;;;;;;;;;11.95;69.07;102682.25;1261466;23;646;-68
2023/01/28 00:04:11;;;;;;;;;;;;;;;11.91;68.78;102681.50;1259683;23;602;-68
2023/01/28 00:05:02;;;;;;;;;;;;;;;11.90;69.00;102686.88;1259521;23;644;-69
2023/01/28 00:05:53;;;;;;;;;;;;;;;11.91;68.77;102689.50;1259695;23;650;-68
2023/01/28 00:06:43;;;;;;;;;;;;;;;11.91;68.49;102685.97;1261379;23;621;-69
2023/01/28 00:07:34;;;;;;;;;;;;;;;11.89;68.97;102691.38;1259541;23;736;-69
2023/01/28 00:08:24;;;;;;;;;;;;;;;11.91;68.56;102696.66;1261152;23;763;-68
2023/01/28 00:09:15;;;;;;;;;;;;;;;11.89;69.37;102691.38;1259392;23;650;-68
2023/01/28 00:10:05;;;;;;;;;;;;;;;11.90;68.93;102687.75;1261012;23;867;-68
2023/01/28 00:10:55;;;;;;;;;;;;;;;11.92;68.83;102699.25;1261135;23;633;-68
2023/01/28 00:11:46;;;;;;;;;;;;;;;11.93;68.42;102692.13;1259262;23;618;-68
2023/01/28 00:12:36;;;;;;;;;;;;;;;11.90;68.39;102687.75;1260939;23;592;-68
2023/01/28 00:13:27;;;;;;;;;;;;;;;11.91;68.90;102697.53;1259612;23;626;-68
2023/01/28 00:14:17;;;;;;;;;;;;;;;11.91;69.44;102688.63;1259770;23;685;-68
2023/01/28 00:15:08;;;;;;;;;;;;;;;11.92;68.91;102693.91;1259367;23;619;-68
2023/01/28 00:15:59;;;;;;;;;;;;;;;11.89;69.34;102694.03;1261372;23;618;-68
2023/01/28 00:16:49;;;;;;;;;;;;;;;11.90;69.44;102690.44;1259674;23;611;-68
2023/01/28 00:17:39;;;;;;;;;;;;;;;11.89;68.61;102686.03;1259618;23;610;-68
2023/01/28 00:18:30;;;;;;;;;;;;;;;11.89;68.35;102688.69;1254968;23;628;-68
2023/01/28 00:19:20;;;;;;;;;;;;;;;11.88;69.08;102684.28;1249187;23;666;-68
2023/01/28 00:20:11;;;;;;;;;;;;;;;11.89;68.50;102686.03;1254793;23;619;-68
2023/01/28 00:21:02;;;;;;;;;;;;;;;11.87;68.89;102681.66;1261354;23;646;-68
2023/01/28 00:21:52;;;;;;;;;;;;;;;11.87;68.92;102679.88;1259806;23;603;-68
2023/01/28 00:22:42;;;;;;;;;;;;;;;11.86;69.08;102683.47;1261335;23;571;-68
2023/01/28 00:23:33;;;;;;;;;;;;;;;11.85;69.32;102679.06;1259662;23;670;-68
2023/01/28 00:24:23;;;;;;;;;;;;;;;11.89;68.94;102680.69;1259787;23;625;-68
2023/01/28 00:25:14;;;;;;;;;;;;;;;11.89;69.45;102686.03;1259437;23;655;-68
2023/01/28 00:26:04;;;;;;;;;;;;;;;11.89;69.04;102686.03;1261349;23;646;-68
2023/01/28 00:26:55;;;;;;;;;;;;;;;11.88;69.25;102680.75;1260743;23;622;-68
2023/01/28 00:27:46;;;;;;;;;;;;;;;11.90;68.64;102681.56;1261284;23;688;-69
2023/01/28 00:28:36;;;;;;;;;;;;;;;11.88;69.50;102686.94;1261399;23;614;-68
2023/01/28 00:29:26;;;;;;;;;;;;;;;11.86;68.69;102674.59;1261325;23;733;-68
2023/01/28 00:30:18;;;;;;;;;;;;;;;11.88;69.26;102684.28;1259601;23;595;-69
2023/01/28 00:31:08;;;;;;;;;;;;;;;11.90;68.87;102677.06;1261317;23;602;-68
2023/01/28 00:31:59;;;;;;;;;;;;;;;11.90;68.45;102676.22;1259502;23;651;-68
2023/01/28 00:32:49;;;;;;;;;;;;;;;11.92;68.91;102680.56;1259609;23;607;-68
2023/01/28 00:33:40;;;;;;;;;;;;;;;11.90;68.98;102677.06;1259475;23;781;-68
2023/01/28 00:34:30;;;;;;;;;;;;;;;11.92;68.39;102683.22;1261382;23;662;-68
2023/01/28 00:35:20;;;;;;;;;;;;;;;11.92;68.91;102683.22;1254931;23;570;-69
2023/01/28 00:36:11;;;;;;;;;;;;;;;11.93;69.14;102676.09;1255067;23;619;-68
2023/01/28 00:37:01;;;;;;;;;;;;;;;11.92;68.76;102679.69;1261228;23;642;-69
2023/01/28 00:37:52;;;;;;;;;;;;;;;11.91;68.58;102670.81;1259635;23;642;-69
2023/01/28 00:38:42;;;;;;;;;;;;;;;11.91;68.69;102677.94;1259757;23;634;-69
2023/01/28 00:39:33;;;;;;;;;;;;;;;11.91;69.27;102675.28;1259481;23;610;-70
2023/01/28 00:40:23;;;;;;;;;;;;;;;11.89;69.06;102678.00;1259704;23;677;-69
2023/01/28 00:41:14;;;;;;;;;;;;;;;11.87;69.40;102681.66;1260613;23;660;-69
2023/01/28 00:42:04;;;;;;;;;;;;;;;11.90;69.24;102682.41;1259703;23;636;-69
2023/01/28 00:42:55;;;;;;;;;;;;;;;11.89;68.99;102672.66;1259552;23;606;-69
2023/01/28 00:43:45;;;;;;;;;;;;;;;11.92;68.73;102680.56;1259657;23;651;-69
2023/01/28 00:44:36;;;;;;;;;;;;;;;11.92;69.02;102688.56;1259316;23;1904;-69
2023/01/28 00:45:26;;;;;;;;;;;;;;;11.93;69.24;102682.31;1259490;23;646;-69
2023/01/28 00:46:16;;;;;;;;;;;;;;;11.88;68.96;102683.41;1259842;23;630;-69
2023/01/28 00:47:07;;;;;;;;;;;;;;;11.89;68.79;102685.16;1259617;23;631;-68
2023/01/28 00:47:57;;;;;;;;;;;;;;;11.90;68.68;102684.22;1259838;23;619;-69
2023/01/28 00:48:48;;;;;;;;;;;;;;;11.89;68.49;102688.69;1259555;23;603;-69
2023/01/28 00:49:38;;;;;;;;;;;;;;;11.90;68.92;102687.75;1261392;23;646;-68
2023/01/28 00:50:29;;;;;;;;;;;;;;;11.88;69.33;102688.75;1259520;23;587;-68
2023/01/28 00:51:19;;;;;;;;;;;;;;;11.89;68.73;102690.50;1259783;23;666;-70
2023/01/28 00:52:10;;;;;;;;;;;;;;;11.88;68.49;102684.28;1259480;23;748;-69
2023/01/28 00:53:00;;;;;;;;;;;;;;;11.88;69.11;102683.41;1259654;23;737;-69
2023/01/28 00:53:52;;;;;;;;;;;;;;;11.90;68.60;102694.91;1261316;23;633;-69
2023/01/28 00:54:43;;;;;;;;;;;;;;;11.92;68.72;102677.00;1261200;23;610;-68
2023/01/28 00:55:33;;;;;;;;;;;;;;;11.89;69.23;102680.69;1261353;23;740;-68
2023/01/28 00:56:24;;;;;;;;;;;;;;;11.86;68.46;102683.47;1259331;23;615;-68
2023/01/28 00:57:14;;;;;;;;;;;;;;;11.86;68.53;102680.81;1259573;23;609;-68
2023/01/28 00:58:05;;;;;;;;;;;;;;;11.88;68.50;102683.41;1259790;23;594;-68
2023/01/28 00:58:55;;;;;;;;;;;;;;;11.89;68.54;102674.47;1259455;23;798;-69
2023/01/28 00:59:45;;;;;;;;;;;;;;;11.87;68.75;102677.19;1259881;23;666;-68
2023/01/28 01:00:36;;;;;;;;;;;;;;;11.89;69.23;102680.69;1259505;23;862;-68
2023/01/28 01:01:26;;;;;;;;;;;;;;;11.88;69.39;102678.06;1259653;23;655;-67
2023/01/28 01:02:17;;;;;;;;;;;;;;;11.87;69.13;102674.53;1259488;23;571;-68
2023/01/28 01:03:07;;;;;;;;;;;;;;;11.87;69.40;102677.19;1259706;23;499;-68
2023/01/28 01:04:04;;;;;;;;;;;;;;;11.89;68.66;102683.34;1259482;23;627;-68
2023/01/28 01:04:57;;;;;;;;;;;;;;;11.87;68.65;102671.84;1261219;23;1930;-68
2023/01/28 01:05:48;;;;;;;;;;;;;;;11.88;68.85;102667.38;1259561;23;650;-68
2023/01/28 01:06:38;;;;;;;;;;;;;;;11.89;68.71;102672.66;1254973;23;638;-69
2023/01/28 01:07:33;;;;;;;;;;;;;;;11.91;69.39;102672.59;1255063;23;642;-69
2023/01/28 01:08:33;;;;;;;;;;;;;;;11.88;69.31;102676.25;1260269;23;602;-68
2023/01/28 01:09:24;;;;;;;;;;;;;;;11.89;68.97;102675.34;1261232;23;614;-68
2023/01/28 01:10:14;;;;;;;;;;;;;;;11.89;68.73;102679.81;1259099;23;689;-68
2023/01/28 01:11:05;;;;;;;;;;;;;;;11.87;68.66;102677.19;1259404;23;627;-68
2023/01/28 01:11:55;;;;;;;;;;;;;;;11.86;68.71;102675.47;1259723;23;646;-68
2023/01/28 01:12:46;;;;;;;;;;;;;;;11.87;68.47;102677.19;1259848;23;666;-68
2023/01/28 01:13:36;;;;;;;;;;;;;;;11.86;69.24;102672.78;1259611;23;575;-67
2023/01/28 01:14:26;;;;;;;;;;;;;;;11.87;68.76;102671.84;1259725;23;607;-68
2023/01/28 01:15:17;;;;;;;;;;;;;;;11.88;69.49;102670.06;1259507;23;662;-67
2023/01/28 01:16:07;;;;;;;;;;;;;;;11.86;69.21;102678.13;1259688;23;700;-67
2023/01/28 01:16:58;;;;;;;;;;;;;;;11.85;68.71;102673.72;1259589;23;661;-68
2023/01/28 01:17:48;;;;;;;;;;;;;;;11.87;68.59;102679.00;1255038;23;682;-68
2023/01/28 01:18:41;;;;;;;;;;;;;;;11.85;69.35;102679.06;1254875;23;630;-68
2023/01/28 01:19:32;;;;;;;;;;;;;;;11.83;69.66;102676.44;1260442;23;623;-68
2023/01/28 01:20:22;;;;;;;;;;;;;;;11.81;69.26;102674.81;1259676;23;634;-68
2023/01/28 01:21:13;;;;;;;;;;;;;;;11.81;69.57;102677.47;1259406;23;717;-68
2023/01/28 01:22:03;;;;;;;;;;;;;;;11.81;68.83;102683.69;1259452;23;674;-68
2023/01/28 01:22:54;;;;;;;;;;;;;;;11.82;68.74;102679.22;1259794;23;646;-68
2023/01/28 01:23:44;;;;;;;;;;;;;;;11.84;68.71;102671.97;1261232;23;681;-68
2023/01/28 01:24:34;;;;;;;;;;;;;;;11.85;69.51;102679.06;1259759;23;1870;-68
2023/01/28 01:25:25;;;;;;;;;;;;;;;11.82;69.53;102674.72;1259442;23;618;-68
2023/01/28 01:26:15;;;;;;;;;;;;;;;11.85;68.92;102681.72;1259684;23;686;-68
2023/01/28 01:27:06;;;;;;;;;;;;;;;11.84;68.91;102682.66;1259358;23;642;-68
2023/01/28 01:27:56;;;;;;;;;;;;;;;11.83;68.95;102676.44;1259672;23;634;-68
2023/01/28 01:28:47;;;;;;;;;;;;;;;11.84;68.56;102682.66;1261304;23;638;-68
2023/01/28 01:29:38;;;;;;;;;;;;;;;11.84;69.46;102682.66;1259646;23;661;-68
2023/01/28 01:30:28;;;;;;;;;;;;;;;11.85;69.14;102679.06;1261282;23;704;-68
2023/01/28 01:31:19;;;;;;;;;;;;;;;11.87;68.76;102679.88;1259340;23;600;-68
2023/01/28 01:32:09;;;;;;;;;;;;;;;11.87;69.33;102685.22;1259577;23;654;-68
2023/01/28 01:33:00;;;;;;;;;;;;;;;11.86;68.55;102682.59;1261250;23;561;-68
2023/01/28 01:33:50;;;;;;;;;;;;;;;11.84;69.18;102680.00;1261343;23;678;-68
2023/01/28 01:34:40;;;;;;;;;;;;;;;11.83;69.08;102689.81;1259656;23;630;-68
2023/01/28 01:35:31;;;;;;;;;;;;;;;11.81;69.13;102688.16;1259185;23;1106;-67
2023/01/28 01:36:22;;;;;;;;;;;;;;;11.82;69.30;102689.91;1259634;23;673;-68
2023/01/28 01:37:12;;;;;;;;;;;;;;;11.83;69.57;102683.59;1260446;23;653;-68
2023/01/28 01:38:03;;;;;;;;;;;;;;;11.84;69.10;102682.66;1259465;23;586;-68
2023/01/28 01:38:54;;;;;;;;;;;;;;;11.84;69.18;102680.00;1259813;23;731;-68
2023/01/28 01:39:44;;;;;;;;;;;;;;;11.86;69.13;102682.59;1261158;23;646;-68
2023/01/28 01:40:35;;;;;;;;;;;;;;;11.85;69.27;102679.06;1259737;23;642;-68
2023/01/28 01:41:25;;;;;;;;;;;;;;;11.82;69.17;102684.56;1259476;23;599;-68
2023/01/28 01:42:15;;;;;;;;;;;;;;;11.84;68.56;102688.00;1261314;23;669;-68
2023/01/28 01:43:06;;;;;;;;;;;;;;;11.81;68.98;102686.34;1254822;23;602;-68
2023/01/28 01:43:56;;;;;;;;;;;;;;;11.81;68.73;102682.81;1254995;23;637;-69
2023/01/28 01:44:47;;;;;;;;;;;;;;;11.81;68.71;102689.03;1260212;23;1905;-69
2023/01/28 01:45:37;;;;;;;;;;;;;;;11.80;69.42;102687.28;1259558;23;646;-70
2023/01/28 01:46:28;;;;;;;;;;;;;;;11.82;69.37;102689.91;1259377;23;721;-69
2023/01/28 01:47:18;;;;;;;;;;;;;;;11.83;69.57;102688.94;1259443;23;595;-69
2023/01/28 01:48:08;;;;;;;;;;;;;;;11.86;69.24;102691.47;1259792;23;662;-69
2023/01/28 01:48:59;;;;;;;;;;;;;;;11.87;68.46;102693.22;1259545;23;591;-69
2023/01/28 01:49:49;;;;;;;;;;;;;;;11.88;69.10;102694.97;1259757;23;655;-69
2023/01/28 01:50:40;;;;;;;;;;;;;;;11.86;68.60;102696.81;1259437;23;630;-69
2023/01/28 01:51:30;;;;;;;;;;;;;;;11.87;69.16;102698.56;1259741;23;611;-69
2023/01/28 01:52:21;;;;;;;;;;;;;;;11.85;68.75;102687.06;1259334;23;602;-69
2023/01/28 01:53:11;;;;;;;;;;;;;;;11.83;69.58;102691.59;1259571;23;623;-69
2023/01/28 01:54:02;;;;;;;;;;;;;;;11.81;68.77;102693.50;1260601;23;673;-69
2023/01/28 01:54:52;;;;;;;;;;;;;;;11.80;69.48;102691.75;1259632;23;614;-69
2023/01/28 01:55:42;;;;;;;;;;;;;;;11.81;69.49;102682.81;1261221;23;677;-69
2023/01/28 01:56:33;;;;;;;;;;;;;;;11.79;69.42;102687.34;1259493;23;603;-69
2023/01/28 01:57:23;;;;;;;;;;;;;;;11.81;69.31;102688.16;1261143;23;629;-69
2023/01/28 01:58:14;;;;;;;;;;;;;;;11.81;69.20;102683.69;1261175;23;657;-69
2023/01/28 01:59:04;;;;;;;;;;;;;;;11.82;68.60;102690.72;1259580;23;643;-69
2023/01/28 01:59:55;;;;;;;;;;;;;;;11.84;69.50;102682.66;1259770;23;665;-69
2023/01/28 02:00:45;;;;;;;;;;;;;;;11.86;68.60;102690.63;1261165;23;618;-69
2023/01/28 02:01:36;;;;;;;;;;;;;;;11.88;69.07;102686.94;1259464;23;610;-69
2023/01/28 02:02:26;;;;;;;;;;;;;;;11.87;69.04;102690.56;1259507;23;630;-69
2023/01/28 02:03:17;;;;;;;;;;;;;;;11.86;68.79;102691.47;1259428;23;634;-69
2023/01/28 02:04:07;;;;;;;;;;;;;;;11.86;69.04;102695.97;1259534;23;674;-69
2023/01/28 02:04:57;;;;;;;;;;;;;;;11.85;68.57;102697.75;1259720;23;1929;-69
2023/01/28 02:05:48;;;;;;;;;;;;;;;11.85;68.83;102695.09;1259458;23;622;-69
2023/01/28 02:06:38;;;;;;;;;;;;;;;11.84;68.53;102688.00;1261098;23;668;-69
2023/01/28 02:07:29;;;;;;;;;;;;;;;11.84;69.35;102690.66;1260322;23;665;-69
2023/01/28 02:08:24;;;;;;;;;;;;;;;11.81;69.22;102690.81;1259161;23;606;-69
2023/01/28 02:09:14;;;;;;;;;;;;;;;11.82;69.27;102690.72;1261146;23;661;-69
2023/01/28 02:10:06;;;;;;;;;;;;;;;11.82;69.43;102689.91;1254874;23;618;-69
2023/01/28 02:10:56;;;;;;;;;;;;;;;11.82;69.40;102697.91;1254899;23;641;-69
2023/01/28 02:11:47;;;;;;;;;;;;;;;11.80;68.89;102697.97;1260337;23;670;-69
2023/01/28 02:12:37;;;;;;;;;;;;;;;11.81;69.04;102694.38;1261264;23;606;-69
2023/01/28 02:13:27;;;;;;;;;;;;;;;11.83;68.67;102691.59;1261219;23;661;-69
2023/01/28 02:14:18;;;;;;;;;;;;;;;11.83;68.40;102686.25;1259525;23;642;-69
2023/01/28 02:15:08;;;;;;;;;;;;;;;11.82;68.74;102696.06;1261181;23;696;-69
2023/01/28 02:15:59;;;;;;;;;;;;;;;11.84;68.65;102693.34;1259440;23;651;-69
2023/01/28 02:16:49;;;;;;;;;;;;;;;11.84;69.35;102698.69;1261226;23;626;-69
2023/01/28 02:17:40;;;;;;;;;;;;;;;11.85;68.80;102694.22;1261239;23;630;-69
2023/01/28 02:18:30;;;;;;;;;;;;;;;11.81;69.38;102693.50;1259475;23;658;-69
2023/01/28 02:19:20;;;;;;;;;;;;;;;11.83;69.19;102691.59;1259671;23;670;-69
2023/01/28 02:20:11;;;;;;;;;;;;;;;11.82;69.29;102689.91;1259423;23;630;-69
2023/01/28 02:21:01;;;;;;;;;;;;;;;11.83;68.62;102694.28;1259619;23;642;-69
2023/01/28 02:21:52;;;;;;;;;;;;;;;11.82;68.84;102690.72;1260417;23;657;-69
2023/01/28 02:22:42;;;;;;;;;;;;;;;11.82;69.07;102689.91;1259028;23;667;-69
2023/01/28 02:23:33;;;;;;;;;;;;;;;11.79;69.15;102690.00;1259677;23;634;-69
2023/01/28 02:24:23;;;;;;;;;;;;;;;11.80;69.24;102694.44;1259375;23;693;-69
2023/01/28 02:25:13;;;;;;;;;;;;;;;11.80;68.65;102700.63;1259598;23;665;-69
2023/01/28 02:26:04;;;;;;;;;;;;;;;11.80;69.40;102694.44;1260307;23;650;-69
2023/01/28 02:26:55;;;;;;;;;;;;;;;11.81;68.57;102702.38;1259640;23;631;-69
2023/01/28 02:27:45;;;;;;;;;;;;;;;11.82;69.33;102708.59;1261310;23;1119;-69
2023/01/28 02:28:36;;;;;;;;;;;;;;;11.79;69.21;102706.91;1261311;23;642;-69
2023/01/28 02:29:26;;;;;;;;;;;;;;;11.79;69.27;102716.72;1259381;23;607;-68
2023/01/28 02:30:16;;;;;;;;;;;;;;;11.79;69.53;102709.59;1254978;23;697;-67
2023/01/28 02:31:07;;;;;;;;;;;;;;;11.82;68.50;102712.09;1254777;23;604;-69
2023/01/28 02:31:57;;;;;;;;;;;;;;;11.81;68.65;102715.75;1261042;23;661;-69
2023/01/28 02:32:48;;;;;;;;;;;;;;;11.80;68.61;102705.97;1259378;23;610;-70
2023/01/28 02:33:38;;;;;;;;;;;;;;;11.79;68.82;102706.91;1259531;23;611;-69
2023/01/28 02:34:29;;;;;;;;;;;;;;;11.80;69.20;102710.47;1259653;23;693;-69
2023/01/28 02:35:19;;;;;;;;;;;;;;;11.79;69.02;102711.38;1259515;23;587;-69
2023/01/28 02:36:09;;;;;;;;;;;;;;;11.79;68.79;102712.25;1259702;23;651;-69
2023/01/28 02:37:00;;;;;;;;;;;;;;;11.79;68.74;102708.72;1259420;23;702;-69
2023/01/28 02:37:50;;;;;;;;;;;;;;;11.77;69.53;102707.91;1254891;23;646;-70
2023/01/28 02:38:41;;;;;;;;;;;;;;;11.76;68.74;102711.50;1254938;23;619;-70
2023/01/28 02:39:32;;;;;;;;;;;;;;;11.77;68.91;102713.25;1260516;23;634;-70
2023/01/28 02:40:22;;;;;;;;;;;;;;;11.77;69.13;102711.44;1259487;23;622;-70
2023/01/28 02:41:12;;;;;;;;;;;;;;;11.75;69.56;102710.59;1259708;23;714;-70
2023/01/28 02:42:03;;;;;;;;;;;;;;;11.74;69.50;102708.84;1261117;23;634;-69
2023/01/28 02:42:53;;;;;;;;;;;;;;;11.74;69.03;102702.66;1259647;23;645;-69
2023/01/28 02:43:44;;;;;;;;;;;;;;;11.74;69.28;102698.16;1259494;23;657;-69
2023/01/28 02:44:34;;;;;;;;;;;;;;;11.75;69.27;102704.38;1261163;23;1905;-69
2023/01/28 02:47:56;;;;;;;;;;;;;;;11.75;68.80;102704.38;1259539;23;666;-69
2023/01/28 02:47:56;;;;;;;;;;;;;;;11.76;69.26;102708.84;1261208;23;626;-69
2023/01/28 02:48:46;;;;;;;;;;;;;;;11.78;68.68;102707.84;1259671;23;665;-69
2023/01/28 02:49:37;;;;;;;;;;;;;;;11.77;69.40;102707.91;1259715;23;603;-69
2023/01/28 02:50:27;;;;;;;;;;;;;;;11.78;69.04;102706.97;1259790;23;650;-69
2023/01/28 02:51:18;;;;;;;;;;;;;;;11.77;69.59;102699.88;1260103;23;646;-69
2023/01/28 02:52:08;;;;;;;;;;;;;;;11.75;68.73;102693.69;1259304;23;662;-69
2023/01/28 02:54:08;;;;;;;;;;;;;;;11.79;68.66;102700.69;1261412;23;631;-69
2023/01/28 02:54:59;;;;;;;;;;;;;;;11.80;68.52;102705.13;1260145;23;619;-69
2023/01/28 02:55:49;;;;;;;;;;;;;;;11.81;69.02;102704.19;1259788;23;608;-69
2023/01/28 02:56:39;;;;;;;;;;;;;;;11.81;69.12;102698.84;1255195;23;803;-69
2023/01/28 02:57:30;;;;;;;;;;;;;;;11.81;69.38;102701.50;1255300;23;709;-69
2023/01/28 02:58:20;;;;;;;;;;;;;;;11.81;68.49;102701.50;1260685;23;611;-69
2023/01/28 03:00:20;;;;;;;;;;;;;;;11.73;69.57;102698.22;1261852;23;610;-70
2023/01/28 03:01:11;;;;;;;;;;;;;;;11.72;69.43;102700.03;1261567;23;650;-69
2023/01/28 03:02:01;;;;;;;;;;;;;;;11.73;68.72;102695.56;1261590;23;603;-69
2023/01/28 03:02:53;;;;;;;;;;;;;;;11.72;69.48;102697.34;1260092;23;658;-69
2023/01/28 03:03:43;;;;;;;;;;;;;;;11.74;69.39;102691.97;1261601;23;673;-69
2023/01/28 03:04:34;;;;;;;;;;;;;;;11.74;69.44;102691.97;1261383;23;1952;-68
2023/01/28 03:05:24;;;;;;;;;;;;;;;11.73;68.88;102695.56;1259876;23;650;-69
2023/01/28 03:06:15;;;;;;;;;;;;;;;11.74;69.14;102687.50;1259414;23;639;-69
2023/01/28 03:07:05;;;;;;;;;;;;;;;11.73;69.75;102690.22;1261544;23;610;-70
2023/01/28 03:07:56;;;;;;;;;;;;;;;11.73;68.97;102698.22;1260057;23;654;-70
2023/01/28 03:09:57;;;;;;;;;;;;;;;11.74;68.76;102694.63;1261681;23;630;-69
2023/01/28 03:37:20;;;;;;;;;;;;;;;11.79;68.46;102690.00;1261383;23;645;-69
2023/01/28 03:38:22;;;;;;;;;;;;;;;11.80;68.31;102689.09;1259585;23;607;-70
2023/01/28 03:39:13;;;;;;;;;;;;;;;11.80;68.50;102691.75;1261380;23;653;-69
2023/01/28 03:40:03;;;;;;;;;;;;;;;11.79;68.60;102688.22;1259610;23;646;-70
2023/01/28 03:40:54;;;;;;;;;;;;;;;11.77;68.99;102686.53;1261480;23;653;-70
2023/01/28 03:41:44;;;;;;;;;;;;;;;11.77;68.88;102691.88;1259730;23;720;-70
2023/01/28 03:42:34;;;;;;;;;;;;;;;11.75;68.46;102689.22;1261308;23;570;-70
2023/01/28 03:43:25;;;;;;;;;;;;;;;11.77;68.99;102689.19;1259553;23;649;-69
2023/01/28 03:45:25;;;;;;;;;;;;;;;11.73;69.19;102692.88;1261354;23;610;-70
2023/01/28 03:46:15;;;;;;;;;;;;;;;11.73;69.38;102701.78;1259682;23;606;-70
2023/01/28 03:47:07;;;;;;;;;;;;;;;11.74;69.05;102697.31;1261452;23;744;-69
2023/01/28 03:47:58;;;;;;;;;;;;;;;11.75;69.46;102707.94;1261447;23;630;-70
2023/01/28 03:48:48;;;;;;;;;;;;;;;11.76;68.70;102700.81;1261288;23;612;-70
2023/01/28 03:49:39;;;;;;;;;;;;;;;11.76;68.49;102700.81;1259882;23;627;-70
2023/01/28 03:50:29;;;;;;;;;;;;;;;11.72;68.82;102702.69;1259567;23;607;-70
2023/01/28 03:51:19;;;;;;;;;;;;;;;11.74;69.21;102707.97;1255142;23;672;-69
2023/01/28 03:52:10;;;;;;;;;;;;;;;11.75;69.10;102705.25;1255147;23;673;-69
2023/01/28 03:53:10;;;;;;;;;;;;;;;11.75;69.18;102702.59;1260375;23;654;-69
2023/01/28 03:54:01;;;;;;;;;;;;;;;11.75;68.41;102699.91;1261423;23;740;-69
2023/01/28 03:54:52;;;;;;;;;;;;;;;11.76;69.04;102701.69;1261397;23;672;-69
2023/01/28 03:55:42;;;;;;;;;;;;;;;11.75;69.02;102702.59;1259702;23;611;-69
2023/01/28 03:56:39;;;;;;;;;;;;;;;11.75;68.36;102704.38;1260053;23;610;-70
2023/01/28 03:57:30;;;;;;;;;;;;;;;11.73;69.36;102701.78;1260339;23;610;-69
2023/01/28 03:58:21;;;;;;;;;;;;;;;11.74;69.14;102702.66;1261390;23;634;-69
2023/01/28 03:59:12;;;;;;;;;;;;;;;11.71;68.98;102703.63;1261402;23;697;-69
2023/01/28 04:00:02;;;;;;;;;;;;;;;11.70;69.40;102701.88;1259542;23;636;-69
2023/01/28 04:00:52;;;;;;;;;;;;;;;11.73;69.45;102700.91;1259747;23;646;-69
2023/01/28 04:01:43;;;;;;;;;;;;;;;11.71;69.15;102697.41;1259926;23;661;-69
2023/01/28 04:02:34;;;;;;;;;;;;;;;11.70;68.98;102701.88;1259639;23;638;-70
2023/01/28 04:03:24;;;;;;;;;;;;;;;11.71;68.85;102697.41;1261345;23;653;-70
2023/01/28 04:04:21;;;;;;;;;;;;;;;11.70;69.10;102706.34;1259234;23;651;-69
2023/01/28 04:05:18;;;;;;;;;;;;;;;11.69;68.94;102707.28;1261396;23;642;-70
2023/01/28 04:06:09;;;;;;;;;;;;;;;11.71;69.32;102702.75;1261352;23;669;-70
2023/01/28 04:06:59;;;;;;;;;;;;;;;11.71;68.59;102708.97;1259672;23;809;-70
2023/01/28 04:07:51;;;;;;;;;;;;;;;11.72;68.71;102709.84;1259804;23;697;-70
2023/01/28 04:08:51;;;;;;;;;;;;;;;11.72;68.65;102708.03;1261408;23;610;-70
2023/01/28 04:09:42;;;;;;;;;;;;;;;11.72;68.62;102712.50;1260536;23;677;-70
2023/01/28 04:10:32;;;;;;;;;;;;;;;11.73;69.20;102709.78;1259501;23;752;-70
2023/01/28 04:11:24;;;;;;;;;;;;;;;11.74;68.81;102724.00;1259809;23;642;-70
2023/01/28 04:12:15;;;;;;;;;;;;;;;11.72;69.48;102721.41;1261352;23;681;-70
2023/01/28 04:13:05;;;;;;;;;;;;;;;11.69;68.65;102716.16;1259836;23;642;-69
2023/01/28 04:13:56;;;;;;;;;;;;;;;11.72;68.83;102715.19;1259908;23;634;-68
2023/01/28 04:14:46;;;;;;;;;;;;;;;11.71;69.08;102718.78;1261458;23;764;-68
2023/01/28 04:15:37;;;;;;;;;;;;;;;11.71;69.02;102718.78;1259797;23;638;-69
2023/01/28 04:16:27;;;;;;;;;;;;;;;11.74;69.03;102724.00;1259604;23;642;-69
2023/01/28 04:17:17;;;;;;;;;;;;;;;11.73;69.30;102724.94;1259660;23;633;-69
2023/01/28 04:18:08;;;;;;;;;;;;;;;11.74;69.08;102730.22;1255155;23;681;-69
2023/01/28 04:18:58;;;;;;;;;;;;;;;11.74;68.90;102726.69;1254527;23;603;-69
2023/01/28 04:19:49;;;;;;;;;;;;;;;11.75;68.69;102731.97;1260588;23;658;-69
2023/01/28 04:20:39;;;;;;;;;;;;;;;11.73;68.42;102728.47;1255054;23;661;-69
2023/01/28 04:21:29;;;;;;;;;;;;;;;11.75;68.64;102729.28;1255135;23;599;-69
2023/01/28 04:22:20;;;;;;;;;;;;;;;11.75;68.81;102729.28;1260381;23;658;-69
2023/01/28 04:23:10;;;;;;;;;;;;;;;11.75;68.82;102715.94;1259653;23;606;-69
2023/01/28 04:24:01;;;;;;;;;;;;;;;11.72;68.97;102724.06;1259952;23;694;-69
2023/01/28 04:24:51;;;;;;;;;;;;;;;11.73;69.19;102723.13;1259562;23;1885;-69
2023/01/28 04:25:42;;;;;;;;;;;;;;;11.72;69.31;102728.53;1259851;23;661;-70
2023/01/28 04:26:32;;;;;;;;;;;;;;;11.73;68.65;102732.94;1259560;23;607;-70
2023/01/28 04:27:22;;;;;;;;;;;;;;;11.72;68.80;102733.88;1259758;23;653;-70
2023/01/28 04:28:13;;;;;;;;;;;;;;;11.74;69.10;102734.69;1255059;23;669;-70
2023/01/28 04:29:03;;;;;;;;;;;;;;;11.70;68.98;102739.28;1255090;23;996;-70
2023/01/28 04:29:54;;;;;;;;;;;;;;;11.69;69.01;102737.53;1260571;23;658;-70
2023/01/28 04:30:44;;;;;;;;;;;;;;;11.68;69.50;102738.47;1261403;23;642;-70
2023/01/28 04:31:34;;;;;;;;;;;;;;;11.73;69.11;102738.28;1259765;23;661;-70
2023/01/28 04:32:25;;;;;;;;;;;;;;;11.72;68.78;102731.22;1261348;23;689;-70
2023/01/28 04:33:15;;;;;;;;;;;;;;;11.73;69.24;102732.94;1259011;23;669;-70
2023/01/28 04:34:06;;;;;;;;;;;;;;;11.75;69.17;102731.09;1259840;23;655;-70
2023/01/28 04:34:56;;;;;;;;;;;;;;;11.76;69.17;102732.88;1259666;23;674;-70
2023/01/28 04:35:47;;;;;;;;;;;;;;;11.76;68.89;102735.53;1259551;23;1229;-70
2023/01/28 04:36:37;;;;;;;;;;;;;;;11.76;68.96;102735.53;1259558;23;747;-70
2023/01/28 04:37:27;;;;;;;;;;;;;;;11.76;69.31;102727.53;1254973;23;713;-70
2023/01/28 04:38:18;;;;;;;;;;;;;;;11.75;68.57;102720.41;1255111;23;601;-70
2023/01/28 04:39:08;;;;;;;;;;;;;;;11.73;69.18;102725.81;1260466;23;611;-70
2023/01/28 04:39:59;;;;;;;;;;;;;;;11.73;68.59;102730.28;1259826;23;666;-70
2023/01/28 04:40:49;;;;;;;;;;;;;;;11.71;69.14;102719.66;1259569;23;627;-70
2023/01/28 04:41:40;;;;;;;;;;;;;;;11.71;69.30;102725.00;1259841;23;745;-70
2023/01/28 04:42:30;;;;;;;;;;;;;;;11.73;69.06;102724.94;1261390;23;606;-70
2023/01/28 04:43:21;;;;;;;;;;;;;;;11.72;69.23;102723.19;1255068;23;638;-70
2023/01/28 04:44:12;;;;;;;;;;;;;;;11.73;69.04;102722.28;1254860;23;639;-70
2023/01/28 04:45:02;;;;;;;;;;;;;;;11.74;69.26;102721.34;1261215;23;1903;-70
2023/01/28 04:45:53;;;;;;;;;;;;;;;11.73;68.46;102711.59;1259328;23;623;-70
2023/01/28 04:46:43;;;;;;;;;;;;;;;11.71;68.66;102721.44;1261352;23;603;-70
2023/01/28 04:47:34;;;;;;;;;;;;;;;11.73;69.08;102711.59;1259929;23;670;-70
2023/01/28 04:48:24;;;;;;;;;;;;;;;11.75;68.37;102720.41;1259445;23;658;-71
2023/01/28 04:49:15;;;;;;;;;;;;;;;11.74;69.13;102714.19;1259829;23;717;-70
2023/01/28 04:50:05;;;;;;;;;;;;;;;11.76;69.21;102717.72;1259464;23;658;-70
2023/01/28 04:50:56;;;;;;;;;;;;;;;11.76;68.89;102716.84;1261349;23;658;-70
2023/01/28 04:51:46;;;;;;;;;;;;;;;11.74;68.72;102716.00;1259550;23;606;-70
2023/01/28 04:52:37;;;;;;;;;;;;;;;11.76;69.23;102714.16;1259862;23;574;-70
2023/01/28 04:53:27;;;;;;;;;;;;;;;11.73;68.45;102716.94;1259469;23;663;-70
2023/01/28 04:54:17;;;;;;;;;;;;;;;11.68;69.43;102718.91;1259463;23;786;-69
2023/01/28 04:55:08;;;;;;;;;;;;;;;11.70;68.70;102722.38;1261355;23;673;-70
2023/01/28 04:55:58;;;;;;;;;;;;;;;11.71;68.45;102724.13;1259493;23;616;-70
2023/01/28 04:56:49;;;;;;;;;;;;;;;11.72;68.40;102724.06;1259831;23;689;-70
2023/01/28 04:57:39;;;;;;;;;;;;;;;11.74;69.11;102724.00;1259420;23;635;-70
2023/01/28 04:58:29;;;;;;;;;;;;;;;11.70;69.12;102722.38;1259568;23;611;-70
2023/01/28 04:59:20;;;;;;;;;;;;;;;11.70;68.87;102720.59;1259816;23;658;-70
2023/01/28 05:00:10;;;;;;;;;;;;;;;11.69;69.23;102710.84;1259644;23;667;-70
2023/01/28 05:01:01;;;;;;;;;;;;;;;11.68;69.47;102714.44;1255187;23;626;-69